createdAt,value
2022-12-05T00:00:37.193Z,12.68
2022-12-05T00:03:04.731Z,11.00
2022-12-05T00:05:33.886Z,12.02
2022-12-05T00:08:00.606Z,11.18
2022-12-05T00:10:27.710Z,11.93
2022-12-05T00:12:54.309Z,13.57
2022-12-05T00:15:21.028Z,12.25
2022-12-05T00:17:49.108Z,13.70
2022-12-05T00:20:15.919Z,12.77
2022-12-05T00:22:43.675Z,13.00
2022-12-05T00:25:10.749Z,12.38
2022-12-05T00:27:37.372Z,10.35
2022-12-05T00:30:04.902Z,12.77
2022-12-05T00:32:32.316Z,15.02
2022-12-05T00:35:00.268Z,13.18
2022-12-05T00:37:26.880Z,13.65
2022-12-05T00:39:53.621Z,13.98
2022-12-05T00:42:20.247Z,14.63
2022-12-05T00:44:49.406Z,14.63
2022-12-05T00:47:16.395Z,11.88
2022-12-05T00:49:43.035Z,12.32
2022-12-05T00:52:11.066Z,11.35
2022-12-05T00:54:38.886Z,13.93
2022-12-05T00:57:05.508Z,12.15
2022-12-05T00:59:32.144Z,14.75
2022-12-05T01:01:58.796Z,13.10
2022-12-05T01:04:26.443Z,12.48
2022-12-05T01:06:55.905Z,12.95
2022-12-05T01:09:25.068Z,14.18
2022-12-05T01:11:52.176Z,14.05
2022-12-05T01:14:21.332Z,13.20
2022-12-05T01:16:49.405Z,15.90
2022-12-05T01:19:17.963Z,15.63
2022-12-05T01:21:44.785Z,13.07
2022-12-05T01:24:12.239Z,12.35
2022-12-05T01:26:40.943Z,9.50
2022-12-05T01:29:07.843Z,11.80
2022-12-05T01:31:36.508Z,11.82
2022-12-05T01:34:05.644Z,12.63
2022-12-05T01:36:34.125Z,10.40
2022-12-05T01:39:01.367Z,13.55
2022-12-05T01:41:30.761Z,14.40
2022-12-05T01:44:02.147Z,13.95
2022-12-05T01:46:30.508Z,13.65
2022-12-05T01:49:02.256Z,12.98
2022-12-05T01:51:30.678Z,11.30
2022-12-05T01:53:57.417Z,12.70
2022-12-05T01:56:24.189Z,11.85
2022-12-05T01:58:52.716Z,13.15
2022-12-05T02:01:21.154Z,12.32
2022-12-05T02:03:51.766Z,13.10
2022-12-05T02:06:18.604Z,13.20
2022-12-05T02:08:45.424Z,12.75
2022-12-05T02:11:12.101Z,11.77
2022-12-05T02:14:04.440Z,12.23
2022-12-05T02:16:44.831Z,11.80
2022-12-05T02:19:48.448Z,13.55
2022-12-05T02:22:43.895Z,13.20
2022-12-05T02:25:26.180Z,11.70
2022-12-05T02:28:13.614Z,12.70
2022-12-05T02:30:49.532Z,12.80
2022-12-05T02:33:23.000Z,12.80
2022-12-05T02:36:00.026Z,9.20
2022-12-05T02:38:31.621Z,11.60
2022-12-05T02:41:12.084Z,10.35
2022-12-05T02:43:43.330Z,8.70
2022-12-05T02:46:16.615Z,9.38
2022-12-05T02:48:46.873Z,8.45
2022-12-05T02:51:17.758Z,10.38
2022-12-05T02:53:47.238Z,10.98
2022-12-05T02:56:15.201Z,10.95
2022-12-05T02:58:47.721Z,10.43
2022-12-05T03:01:16.544Z,10.10
2022-12-05T03:03:43.422Z,12.57
2022-12-05T03:06:15.172Z,8.10
2022-12-05T03:08:45.667Z,10.55
2022-12-05T03:11:12.353Z,9.75
2022-12-05T03:13:44.646Z,9.88
2022-12-05T03:16:17.064Z,11.10
2022-12-05T03:18:47.570Z,8.73
2022-12-05T03:21:24.796Z,10.40
2022-12-05T03:23:54.830Z,9.45
2022-12-05T03:26:36.151Z,10.07
2022-12-05T03:29:19.628Z,10.65
2022-12-05T03:31:55.275Z,9.80
2022-12-05T03:34:32.404Z,9.50
2022-12-05T03:37:05.897Z,9.73
2022-12-05T03:39:35.971Z,8.93
2022-12-05T03:42:09.503Z,9.30
2022-12-05T03:44:44.520Z,9.48
2022-12-05T03:47:17.470Z,9.93
2022-12-05T03:49:48.174Z,10.63
2022-12-05T03:52:20.432Z,10.40
2022-12-05T03:54:51.488Z,9.98
2022-12-05T03:57:23.745Z,10.07
2022-12-05T03:59:56.006Z,9.30
2022-12-05T04:02:28.490Z,9.18
2022-12-05T04:05:01.695Z,10.07
2022-12-05T04:07:32.644Z,9.88
2022-12-05T04:10:03.963Z,11.52
2022-12-05T04:12:32.998Z,10.63
2022-12-05T04:15:02.766Z,10.20
2022-12-05T04:17:39.066Z,8.68
2022-12-05T04:20:31.108Z,11.75
2022-12-05T04:22:58.791Z,9.75
2022-12-05T04:25:34.432Z,10.00
2022-12-05T04:28:19.580Z,11.20
2022-12-05T04:30:53.778Z,10.63
2022-12-05T04:33:29.794Z,11.38
2022-12-05T04:36:03.110Z,11.13
2022-12-05T04:38:37.949Z,10.90
2022-12-05T04:41:09.006Z,11.07
2022-12-05T04:43:41.359Z,10.75
2022-12-05T04:46:11.220Z,11.27
2022-12-05T04:48:42.808Z,11.77
2022-12-05T04:51:15.758Z,11.52
2022-12-05T04:53:45.395Z,10.77
2022-12-05T04:56:14.641Z,11.20
2022-12-05T04:58:41.448Z,9.88
2022-12-05T05:01:14.234Z,9.30
2022-12-05T05:03:45.817Z,9.65
2022-12-05T05:06:13.058Z,9.65
2022-12-05T05:08:48.142Z,9.55
2022-12-05T05:11:17.456Z,9.98
2022-12-05T05:13:44.129Z,10.20
2022-12-05T05:16:14.820Z,9.07
2022-12-05T05:18:42.863Z,10.25
2022-12-05T05:21:15.999Z,9.30
2022-12-05T05:23:42.629Z,9.18
2022-12-05T05:26:09.241Z,9.10
2022-12-05T05:28:36.047Z,9.40
2022-12-05T05:31:03.746Z,10.48
2022-12-05T05:33:30.453Z,9.55
2022-12-05T05:36:02.540Z,9.20
2022-12-05T05:38:29.133Z,8.25
2022-12-05T05:40:55.838Z,9.02
2022-12-05T05:43:22.568Z,10.07
2022-12-05T05:45:49.150Z,9.18
2022-12-05T05:48:16.090Z,9.30
2022-12-05T05:50:42.712Z,8.38
2022-12-05T05:53:10.682Z,8.15
2022-12-05T05:55:39.437Z,9.40
2022-12-05T05:58:06.073Z,10.48
2022-12-05T06:00:33.248Z,6.93
2022-12-05T06:03:00.107Z,9.20
2022-12-05T06:05:26.841Z,8.95
2022-12-05T06:07:53.701Z,8.32
2022-12-05T06:10:21.861Z,8.73
2022-12-05T06:12:48.524Z,6.85
2022-12-05T06:15:15.369Z,8.93
2022-12-05T06:17:42.045Z,9.77
2022-12-05T06:20:09.264Z,8.55
2022-12-05T06:22:35.898Z,7.93
2022-12-05T06:25:03.603Z,8.32
2022-12-05T06:27:32.231Z,7.15
2022-12-05T06:29:59.429Z,8.65
2022-12-05T06:32:28.174Z,9.93
2022-12-05T06:34:54.775Z,8.65
2022-12-05T06:37:21.900Z,8.55
2022-12-05T06:39:48.527Z,10.13
2022-12-05T06:42:15.510Z,9.25
2022-12-05T06:44:43.478Z,8.40
2022-12-05T06:47:10.064Z,7.75
2022-12-05T06:49:38.289Z,8.13
2022-12-05T06:52:10.518Z,7.72
2022-12-05T06:54:37.279Z,7.43
2022-12-05T06:57:04.124Z,6.65
2022-12-05T06:59:30.743Z,7.93
2022-12-05T07:01:58.768Z,9.63
2022-12-05T07:04:25.620Z,9.32
2022-12-05T07:06:54.333Z,7.05
2022-12-05T07:09:43.713Z,7.38
2022-12-05T07:12:10.495Z,7.72
2022-12-05T07:14:47.723Z,8.77
2022-12-05T07:17:16.635Z,7.35
2022-12-05T07:19:43.568Z,8.65
2022-12-05T07:22:15.420Z,8.40
2022-12-05T07:24:42.639Z,6.70
2022-12-05T07:27:09.325Z,7.43
2022-12-05T07:29:36.319Z,7.75
2022-12-05T07:32:03.853Z,8.60
2022-12-05T07:34:31.964Z,8.18
2022-12-05T07:36:58.851Z,7.85
2022-12-05T07:39:25.735Z,7.28
2022-12-05T07:41:52.330Z,7.38
2022-12-05T07:44:18.968Z,7.43
2022-12-05T07:46:45.709Z,7.40
2022-12-05T07:49:12.349Z,6.93
2022-12-05T07:51:40.329Z,7.35
2022-12-05T07:54:07.378Z,7.70
2022-12-05T07:56:34.122Z,6.95
2022-12-05T07:59:02.430Z,6.20
2022-12-05T08:01:29.789Z,8.43
2022-12-05T08:03:58.251Z,7.88
2022-12-05T08:06:27.528Z,7.75
2022-12-05T08:08:56.236Z,7.15
2022-12-05T08:11:24.700Z,4.60
2022-12-05T08:13:51.978Z,5.97
2022-12-05T08:16:20.820Z,6.88
2022-12-05T08:18:48.093Z,6.45
2022-12-05T08:21:16.676Z,7.40
2022-12-05T08:23:44.674Z,7.35
2022-12-05T08:26:15.286Z,7.25
2022-12-05T08:28:42.990Z,7.35
2022-12-05T08:31:12.239Z,8.10
2022-12-05T08:33:39.636Z,7.03
2022-12-05T08:36:09.058Z,7.45
2022-12-05T08:38:36.033Z,6.70
2022-12-05T08:41:03.775Z,6.25
2022-12-05T08:43:32.487Z,8.88
2022-12-05T08:46:00.256Z,8.50
2022-12-05T08:48:29.589Z,8.07
2022-12-05T08:50:57.362Z,7.97
2022-12-05T08:53:24.169Z,8.73
2022-12-05T08:55:50.864Z,7.32
2022-12-05T08:58:17.564Z,7.70
2022-12-05T09:00:45.567Z,8.23
2022-12-05T09:03:12.713Z,7.50
2022-12-05T09:05:39.613Z,8.48
2022-12-05T09:08:06.469Z,8.98
2022-12-05T09:10:33.800Z,8.35
2022-12-05T09:13:00.453Z,9.05
2022-12-05T09:15:27.147Z,8.63
2022-12-05T09:17:55.126Z,8.18
2022-12-05T09:20:21.910Z,8.35
2022-12-05T09:22:48.546Z,7.60
2022-12-05T09:25:15.468Z,8.45
2022-12-05T09:27:42.063Z,7.88
2022-12-05T09:30:09.892Z,8.30
2022-12-05T09:32:36.544Z,7.97
2022-12-05T09:35:05.020Z,7.03
2022-12-05T09:37:39.093Z,8.35
2022-12-05T09:40:07.939Z,7.80
2022-12-05T09:42:58.643Z,6.85
2022-12-05T09:45:30.277Z,7.50
2022-12-05T09:48:00.093Z,7.70
2022-12-05T09:50:30.757Z,7.70
2022-12-05T09:53:06.311Z,7.93
2022-12-05T09:55:41.851Z,8.07
2022-12-05T09:58:20.907Z,8.13
2022-12-05T10:00:48.424Z,7.30
2022-12-05T10:03:28.508Z,8.02
2022-12-05T10:06:14.243Z,8.95
2022-12-05T10:09:05.568Z,7.47
2022-12-05T10:11:37.276Z,7.65
2022-12-05T10:14:13.642Z,6.85
2022-12-05T10:16:49.780Z,8.02
2022-12-05T10:19:21.193Z,6.95
2022-12-05T10:21:56.598Z,7.82
2022-12-05T10:24:29.684Z,7.63
2022-12-05T10:27:00.857Z,7.32
2022-12-05T10:29:31.785Z,7.88
2022-12-05T10:32:05.852Z,7.68
2022-12-05T10:34:37.293Z,7.15
2022-12-05T10:37:11.095Z,7.03
2022-12-05T10:39:38.391Z,8.00
2022-12-05T10:42:12.332Z,8.15
2022-12-05T10:44:41.773Z,7.65
2022-12-05T10:47:08.708Z,8.52
2022-12-05T10:49:36.810Z,7.82
2022-12-05T10:52:06.535Z,8.05
2022-12-05T10:54:42.990Z,7.65
2022-12-05T10:57:22.939Z,7.00
2022-12-05T10:59:49.854Z,8.02
2022-12-05T11:02:24.826Z,7.95
2022-12-05T11:04:52.582Z,6.68
2022-12-05T11:07:29.092Z,7.65
2022-12-05T11:09:57.733Z,7.00
2022-12-05T11:12:27.435Z,7.28
2022-12-05T11:15:00.486Z,6.43
2022-12-05T11:17:33.341Z,6.95
2022-12-05T11:20:00.252Z,6.45
2022-12-05T11:22:35.031Z,6.30
2022-12-05T11:25:24.547Z,5.80
2022-12-05T11:27:51.270Z,5.93
2022-12-05T11:30:19.587Z,6.93
2022-12-05T11:32:46.318Z,5.40
2022-12-05T11:35:24.807Z,5.65
2022-12-05T11:37:54.162Z,6.30
2022-12-05T11:40:35.206Z,6.47
2022-12-05T11:43:32.389Z,5.35
2022-12-05T11:46:11.510Z,5.97
2022-12-05T11:48:58.311Z,5.38
2022-12-05T11:51:38.522Z,5.32
2022-12-05T11:55:03.836Z,5.65
2022-12-05T11:57:34.672Z,4.75
2022-12-05T12:00:15.084Z,5.07
2022-12-05T12:03:05.021Z,5.38
2022-12-05T12:05:37.613Z,5.28
2022-12-05T12:08:17.221Z,4.65
2022-12-05T12:10:54.053Z,5.20
2022-12-05T12:13:35.426Z,4.93
2022-12-05T12:16:13.969Z,4.28
2022-12-05T12:18:57.953Z,3.90
2022-12-05T12:24:11.885Z,4.40
2022-12-05T12:26:49.806Z,3.58
2022-12-05T12:32:07.427Z,3.83
2022-12-05T12:34:49.980Z,3.88
2022-12-05T12:37:25.163Z,3.58
2022-12-05T12:39:54.820Z,3.78
2022-12-05T12:42:25.870Z,3.95
2022-12-05T12:45:23.462Z,3.92
2022-12-05T12:48:08.264Z,4.47
2022-12-05T12:50:43.825Z,4.47
2022-12-05T12:53:31.641Z,4.25
2022-12-05T12:56:04.533Z,4.85
2022-12-05T12:58:46.884Z,3.85
2022-12-05T13:01:28.482Z,4.80
2022-12-05T13:04:02.717Z,4.38
2022-12-05T13:06:34.069Z,3.85
2022-12-05T13:09:04.685Z,3.95
2022-12-05T13:11:38.636Z,4.07
2022-12-05T13:14:14.519Z,3.60
2022-12-05T13:16:46.454Z,4.18
2022-12-05T13:19:25.929Z,4.55
2022-12-05T13:21:53.921Z,4.10
2022-12-05T13:24:25.940Z,9.20
2022-12-05T13:26:53.349Z,4.55
2022-12-05T13:29:24.087Z,5.25
2022-12-05T13:31:53.048Z,4.45
2022-12-05T13:34:46.241Z,3.60
2022-12-05T13:37:38.719Z,4.07
2022-12-05T13:40:37.514Z,3.47
2022-12-05T13:43:05.756Z,4.45
2022-12-05T13:45:34.641Z,3.50
2022-12-05T13:48:14.208Z,3.47
2022-12-05T13:50:51.883Z,3.72
2022-12-05T13:53:29.090Z,3.60
2022-12-05T13:55:58.573Z,4.07
2022-12-05T13:58:45.479Z,4.10
2022-12-05T14:01:50.401Z,3.35
2022-12-05T14:04:44.803Z,3.47
2022-12-05T14:07:12.248Z,3.08
2022-12-05T14:09:51.880Z,3.40
2022-12-05T14:12:46.352Z,3.83
2022-12-05T14:15:31.224Z,4.10
2022-12-05T14:18:02.436Z,3.55
2022-12-05T14:20:44.698Z,3.45
2022-12-05T14:23:29.931Z,3.20
2022-12-05T14:26:14.498Z,3.28
2022-12-05T14:28:59.409Z,17.98
2022-12-05T14:31:43.223Z,3.15
2022-12-05T14:34:22.346Z,3.20
2022-12-05T14:37:00.659Z,2.22
2022-12-05T14:39:40.973Z,2.08
2022-12-05T14:42:27.083Z,1.83
2022-12-05T14:44:58.189Z,2.00
2022-12-05T14:47:29.009Z,1.48
2022-12-05T14:50:04.626Z,1.48
2022-12-05T14:52:34.474Z,1.35
2022-12-05T14:55:14.394Z,1.20
2022-12-05T14:57:49.024Z,0.98
2022-12-05T15:00:22.138Z,1.10
2022-12-05T15:02:51.543Z,1.10
2022-12-05T15:05:24.348Z,0.70
2022-12-05T15:07:56.887Z,0.77
2022-12-05T15:10:28.406Z,0.65
2022-12-05T15:12:58.874Z,0.85
2022-12-05T15:15:35.935Z,0.65
2022-12-05T15:18:12.329Z,0.80
2022-12-05T15:20:46.499Z,0.70
2022-12-05T15:23:40.451Z,0.75
2022-12-05T15:26:45.605Z,0.90
2022-12-05T15:29:08.221Z,1.10
2022-12-05T15:31:45.704Z,1.10
2022-12-05T15:34:17.158Z,1.08
2022-12-05T15:36:48.116Z,1.20
2022-12-05T15:39:24.009Z,1.58
2022-12-05T15:41:51.774Z,1.00
2022-12-05T15:44:27.599Z,0.95
2022-12-05T15:46:56.623Z,0.82
2022-12-05T15:49:25.540Z,0.80
2022-12-05T15:51:57.686Z,1.00
2022-12-05T15:54:32.447Z,0.77
2022-12-05T15:57:07.326Z,0.80
2022-12-05T15:59:39.387Z,0.85
2022-12-05T16:02:15.305Z,0.77
2022-12-05T16:04:46.858Z,1.23
2022-12-05T16:07:15.054Z,1.08
2022-12-05T16:09:45.870Z,1.23
2022-12-05T16:12:21.230Z,1.17
2022-12-05T16:14:59.617Z,0.98
2022-12-05T16:17:29.464Z,0.98
2022-12-05T16:20:10.753Z,1.15
2022-12-05T16:22:43.158Z,1.52
2022-12-05T16:25:15.666Z,1.30
2022-12-05T16:27:44.107Z,0.85
2022-12-05T16:30:18.801Z,0.88
2022-12-05T16:32:47.522Z,1.10
2022-12-05T16:35:29.527Z,1.00
2022-12-05T16:38:04.128Z,1.00
2022-12-05T16:40:32.592Z,0.82
2022-12-05T16:43:03.327Z,1.00
2022-12-05T16:45:41.962Z,0.90
2022-12-05T16:48:17.540Z,0.98
2022-12-05T16:50:44.556Z,1.02
2022-12-05T16:53:29.933Z,1.00
2022-12-05T16:55:59.392Z,0.93
2022-12-05T16:58:29.940Z,1.13
2022-12-05T17:01:02.693Z,0.90
2022-12-05T17:03:34.913Z,0.93
2022-12-05T17:06:02.959Z,0.90
2022-12-05T17:08:31.908Z,0.90
2022-12-05T17:11:01.948Z,0.95
2022-12-05T17:13:29.940Z,0.95
2022-12-05T17:15:56.738Z,0.77
2022-12-05T17:18:29.637Z,1.15
2022-12-05T17:21:01.002Z,0.90
2022-12-05T17:23:27.687Z,0.93
2022-12-05T17:25:57.762Z,1.08
2022-12-05T17:28:25.937Z,1.33
2022-12-05T17:30:52.770Z,1.08
2022-12-05T17:33:19.949Z,0.70
2022-12-05T17:35:47.223Z,0.88
2022-12-05T17:38:14.404Z,1.15
2022-12-05T17:40:41.225Z,0.98
2022-12-05T17:43:11.213Z,1.02
2022-12-05T17:45:39.285Z,0.93
2022-12-05T17:48:06.214Z,1.20
2022-12-05T17:50:33.161Z,0.90
2022-12-05T17:53:05.777Z,1.00
2022-12-05T17:55:34.158Z,1.13
2022-12-05T17:58:00.803Z,1.05
2022-12-05T18:00:27.449Z,1.02
2022-12-05T18:02:55.588Z,1.05
2022-12-05T18:05:22.409Z,1.20
2022-12-05T18:07:49.236Z,1.08
2022-12-05T18:10:19.022Z,1.05
2022-12-05T18:12:46.272Z,1.15
2022-12-05T18:15:13.449Z,1.00
2022-12-05T18:17:40.828Z,1.13
2022-12-05T18:20:11.696Z,1.00
2022-12-05T18:22:38.684Z,1.52
2022-12-05T18:25:06.435Z,1.23
2022-12-05T18:27:34.463Z,1.15
2022-12-05T18:30:01.455Z,1.13
2022-12-05T18:32:28.262Z,1.30
2022-12-05T18:34:54.996Z,1.40
2022-12-05T18:37:24.814Z,1.20
2022-12-05T18:39:51.629Z,1.02
2022-12-05T18:42:18.417Z,1.23
2022-12-05T18:44:45.110Z,1.23
2022-12-05T18:47:11.850Z,1.20
2022-12-05T18:49:38.742Z,1.50
2022-12-05T18:52:05.473Z,1.02
2022-12-05T18:54:33.515Z,1.25
2022-12-05T18:57:00.144Z,1.45
2022-12-05T18:59:28.636Z,1.60
2022-12-05T19:01:55.614Z,1.13
2022-12-05T19:04:26.960Z,1.48
2022-12-05T19:06:55.716Z,1.42
2022-12-05T19:09:24.090Z,1.23
2022-12-05T19:11:57.935Z,1.20
2022-12-05T19:14:25.746Z,1.52
2022-12-05T19:16:59.824Z,1.23
2022-12-05T19:19:28.092Z,1.60
2022-12-05T19:21:55.245Z,1.33
2022-12-05T19:24:22.089Z,1.27
2022-12-05T19:26:48.828Z,1.73
2022-12-05T19:29:17.435Z,1.70
2022-12-05T19:31:44.702Z,1.50
2022-12-05T19:34:14.361Z,1.63
2022-12-05T19:36:42.974Z,1.75
2022-12-05T19:39:11.923Z,1.65
2022-12-05T19:41:38.704Z,1.38
2022-12-05T19:44:06.043Z,1.88
2022-12-05T19:46:34.671Z,1.42
2022-12-05T19:49:03.567Z,1.50
2022-12-05T19:51:30.993Z,1.55
2022-12-05T19:53:58.857Z,1.98
2022-12-05T19:56:28.097Z,1.67
2022-12-05T19:58:56.512Z,1.95
2022-12-05T20:01:25.407Z,1.42
2022-12-05T20:03:55.850Z,2.20
2022-12-05T20:06:23.203Z,1.98
2022-12-05T20:08:53.532Z,2.05
2022-12-05T20:11:22.367Z,1.70
2022-12-05T20:13:49.090Z,1.38
2022-12-05T20:16:18.926Z,1.83
2022-12-05T20:18:46.665Z,1.83
2022-12-05T20:21:16.760Z,1.73
2022-12-05T20:23:43.541Z,1.85
2022-12-05T20:26:12.566Z,1.85
2022-12-05T20:28:39.855Z,1.65
2022-12-05T20:31:08.255Z,1.83
2022-12-05T20:33:38.282Z,2.05
2022-12-05T20:36:07.357Z,1.60
2022-12-05T20:38:35.810Z,1.70
2022-12-05T20:41:04.972Z,1.98
2022-12-05T20:43:33.325Z,1.95
2022-12-05T20:46:05.457Z,1.67
2022-12-05T20:48:33.390Z,1.75
2022-12-05T20:51:04.979Z,1.95
2022-12-05T20:53:33.370Z,1.73
2022-12-05T20:56:04.089Z,1.45
2022-12-05T20:58:30.773Z,1.70
2022-12-05T21:01:00.521Z,2.03
2022-12-05T21:03:27.478Z,1.95
2022-12-05T21:05:54.344Z,1.92
2022-12-05T21:08:21.594Z,1.88
2022-12-05T21:10:50.326Z,1.63
2022-12-05T21:13:20.352Z,1.80
2022-12-05T21:15:47.103Z,1.60
2022-12-05T21:18:13.779Z,1.63
2022-12-05T21:20:42.336Z,1.45
2022-12-05T21:23:09.280Z,1.70
2022-12-05T21:25:35.956Z,1.58
2022-12-05T21:28:02.841Z,1.83
2022-12-05T21:30:30.853Z,1.45
2022-12-05T21:32:57.642Z,1.70
2022-12-05T21:35:24.311Z,1.73
2022-12-05T21:37:51.016Z,1.77
2022-12-05T21:40:17.793Z,1.75
2022-12-05T21:42:44.653Z,1.95
2022-12-05T21:45:11.621Z,2.10
2022-12-05T21:47:39.767Z,1.85
2022-12-05T21:50:07.597Z,1.92
2022-12-05T21:52:39.593Z,1.63
2022-12-05T21:55:07.732Z,1.65
2022-12-05T21:57:38.812Z,2.00
2022-12-05T22:00:06.802Z,1.60
2022-12-05T22:02:33.914Z,1.90
2022-12-05T22:05:02.016Z,2.45
2022-12-05T22:08:06.799Z,1.85
2022-12-05T22:10:33.589Z,1.40
2022-12-05T22:13:00.234Z,1.73
2022-12-05T22:15:26.858Z,1.83
2022-12-05T22:17:53.495Z,1.52
2022-12-05T22:20:21.613Z,1.70
2022-12-05T22:22:48.285Z,1.40
2022-12-05T22:25:15.122Z,1.75
2022-12-05T22:27:41.974Z,1.58
2022-12-05T22:30:09.452Z,2.13
2022-12-05T22:32:36.135Z,1.90
2022-12-05T22:35:04.326Z,1.27
2022-12-05T22:37:32.792Z,1.25
2022-12-05T22:39:59.727Z,1.52
2022-12-05T22:42:27.500Z,1.38
2022-12-05T22:44:54.268Z,1.20
2022-12-05T22:47:20.976Z,1.35
2022-12-05T22:49:47.750Z,1.52
2022-12-05T22:52:15.307Z,1.40
2022-12-05T22:54:43.385Z,1.33
2022-12-05T22:57:10.106Z,1.67
2022-12-05T22:59:36.750Z,1.20
2022-12-05T23:02:03.480Z,1.70
2022-12-05T23:04:30.302Z,1.75
2022-12-05T23:06:57.201Z,1.55
2022-12-05T23:09:24.106Z,1.25
2022-12-05T23:11:52.792Z,1.63
2022-12-05T23:14:19.670Z,1.58
2022-12-05T23:16:46.520Z,1.13
2022-12-05T23:19:13.303Z,1.30
2022-12-05T23:21:40.843Z,1.08
2022-12-05T23:24:10.176Z,1.30
2022-12-05T23:26:39.794Z,1.08
2022-12-05T23:29:08.494Z,1.27
2022-12-05T23:31:35.336Z,1.02
2022-12-05T23:34:03.912Z,1.05
2022-12-05T23:36:31.468Z,1.10
2022-12-05T23:38:58.251Z,1.50
2022-12-05T23:41:26.151Z,1.20
2022-12-05T23:43:53.451Z,1.13
2022-12-05T23:46:23.738Z,1.23
2022-12-05T23:48:50.930Z,1.00
2022-12-05T23:51:20.292Z,1.10
2022-12-05T23:53:48.336Z,0.88
2022-12-05T23:56:17.299Z,0.73
2022-12-05T23:58:44.630Z,1.00
